Time;durP1;ratioP1;P1;durP2;ratioP2;P2;SDS_P1;SDS_P2;PMS_P1;PMS_P2;Temp;Humidity;BMP_temperature;BMP_pressure;BME280_temperature;BME280_humidity;BME280_pressure;Samples;Min_cycle;Max_cycle;Signal;HPM_P1;HPM_P2
2022/03/04 00:01:01;;;;;;;14.20;5.47;;;2.90;97.70;;;2.60;61.47;101304.97;5180883;28;20495;-70
2022/03/04 00:03:33;;;;;;;11.85;5.57;;;2.80;97.60;;;2.53;62.01;101296.69;5201959;23;20236;-87
2022/03/04 00:06:06;;;;;;;13.98;6.03;;;2.80;98.20;;;2.48;61.84;101303.16;5178469;28;20056;-86
2022/03/04 00:08:38;;;;;;;13.63;5.45;;;2.70;98.60;;;2.48;62.25;101305.72;5172656;28;20077;-86
2022/03/04 00:11:10;;;;;;;12.85;5.07;;;2.70;99.00;;;2.43;62.80;101303.72;5179160;28;20053;-86
2022/03/04 00:13:43;;;;;;;12.80;5.05;;;2.70;99.10;;;2.40;63.09;101300.00;5177333;28;20053;-87
2022/03/04 00:16:15;;;;;;;14.65;5.93;;;2.60;99.20;;;2.36;62.57;101311.78;5158290;28;20046;-87
2022/03/04 00:19:06;;;;;;;13.25;5.28;;;2.60;99.40;;;2.34;63.02;101310.72;5146956;28;20055;-86
2022/03/04 00:21:41;;;;;;;11.63;5.15;;;2.60;99.40;;;2.32;63.67;101314.88;5152892;28;20046;-86
2022/03/04 00:24:13;;;;;;;12.50;6.47;;;2.60;99.80;;;2.30;63.51;101307.84;5240114;23;20474;-70
2022/03/04 00:26:45;;;;;;;15.50;6.07;;;2.50;99.50;;;2.30;62.38;101306.16;5193882;28;20055;-69
2022/03/04 00:29:19;;;;;;;15.70;5.93;;;2.50;99.00;;;2.32;62.10;101312.31;5201280;28;20512;-69
2022/03/04 00:31:51;;;;;;;14.50;5.97;;;2.50;98.80;;;2.31;62.04;101310.50;5195032;28;20054;-69
2022/03/04 00:34:25;;;;;;;15.18;5.88;;;2.50;98.40;;;2.28;61.77;101320.59;5190770;28;20050;-69
2022/03/04 00:36:57;;;;;;;17.08;6.82;;;2.50;98.40;;;2.27;61.74;101312.72;5203293;28;20052;-69
2022/03/04 00:39:29;;;;;;;19.65;6.28;;;2.50;98.30;;;2.25;61.91;101320.34;5203758;28;20050;-69
2022/03/04 00:42:01;;;;;;;16.02;6.53;;;2.50;98.50;;;2.23;61.47;101321.00;5204176;28;20049;-70
2022/03/04 00:44:35;;;;;;;16.33;6.32;;;2.40;98.40;;;2.20;61.78;101324.22;5204165;28;20058;-70
2022/03/04 00:47:07;;;;;;;14.77;6.07;;;2.40;98.60;;;2.16;62.11;101335.09;5203509;28;20045;-69
2022/03/04 00:49:39;;;;;;;14.65;5.82;;;2.40;98.80;;;2.13;62.31;101325.44;5204233;28;20051;-70
2022/03/04 00:52:11;;;;;;;16.35;6.20;;;2.40;99.20;;;2.10;62.63;101329.47;5204354;28;20153;-70
2022/03/04 00:54:43;;;;;;;15.45;5.75;;;2.30;99.30;;;2.07;62.72;101330.09;5203266;28;20061;-71
2022/03/04 00:57:15;;;;;;;17.38;6.50;;;2.30;99.50;;;2.07;63.77;101329.22;5203790;28;20401;-71
2022/03/04 00:59:49;;;;;;;15.70;6.55;;;2.30;99.90;;;2.08;63.30;101336.16;5204598;28;20808;-71
2022/03/04 01:02:21;;;;;;;13.50;5.95;;;2.30;99.90;;;2.09;63.24;101322.53;5204483;28;20053;-71
2022/03/04 01:04:53;;;;;;;14.27;5.60;;;2.30;99.70;;;2.07;63.34;101335.25;5204005;28;20060;-69
2022/03/04 01:07:25;;;;;;;16.80;6.22;;;2.30;99.40;;;2.03;63.08;101337.50;5203768;28;20059;-69
2022/03/04 01:09:57;;;;;;;18.65;6.80;;;2.20;99.50;;;2.02;62.74;101331.44;5203820;28;20619;-70
2022/03/04 01:12:29;;;;;;;13.45;5.80;;;2.30;99.30;;;2.04;62.47;101341.84;5204609;28;20049;-70
2022/03/04 01:15:02;;;;;;;15.02;6.18;;;2.30;99.30;;;2.04;62.96;101341.84;5203832;28;20482;-70
2022/03/04 01:17:34;;;;;;;14.70;5.50;;;2.30;99.20;;;2.06;62.51;101335.13;5202749;28;20053;-69
2022/03/04 01:20:09;;;;;;;15.93;6.50;;;2.30;99.20;;;2.06;62.84;101338.59;5207514;28;20048;-69
2022/03/04 01:22:41;;;;;;;15.77;6.50;;;2.30;99.20;;;2.06;62.99;101336.03;5207440;28;20045;-70
2022/03/04 01:25:13;;;;;;;15.20;6.30;;;2.30;99.10;;;2.05;62.47;101330.78;5207281;28;20046;-71
2022/03/04 01:27:45;;;;;;;14.68;6.38;;;2.30;98.90;;;2.04;62.43;101331.56;5207340;28;20069;-70
2022/03/04 01:30:19;;;;;;;21.88;7.13;;;2.30;98.90;;;2.00;62.87;101329.53;5207378;28;20148;-70
2022/03/04 01:32:51;;;;;;;17.42;6.40;;;2.30;99.10;;;1.97;62.76;101329.31;5207468;28;20128;-70
2022/03/04 01:35:23;;;;;;;16.80;6.80;;;2.20;99.50;;;1.92;63.14;101330.59;5207551;28;20505;-70
2022/03/04 01:37:55;;;;;;;14.93;5.85;;;2.20;99.50;;;1.85;63.96;101331.81;5206995;28;20064;-70
2022/03/04 01:40:27;;;;;;;15.32;6.30;;;2.10;99.90;;;1.79;63.64;101342.50;5207690;28;20049;-70
2022/03/04 01:42:59;;;;;;;13.38;6.18;;;2.10;99.90;;;1.73;64.36;101342.03;5207732;28;20046;-70
2022/03/04 01:45:33;;;;;;;14.85;6.10;;;2.00;99.90;;;1.70;64.44;101330.63;5207125;28;20049;-69
2022/03/04 01:48:06;;;;;;;15.10;5.90;;;2.00;99.90;;;1.69;65.07;101339.09;5207174;28;20049;-71
2022/03/04 01:50:38;;;;;;;15.27;5.68;;;2.00;99.90;;;1.64;64.86;101333.59;5207764;28;20284;-70
2022/03/04 01:53:10;;;;;;;17.98;6.82;;;1.90;99.90;;;1.61;64.93;101339.38;5207367;28;20049;-69
2022/03/04 01:55:42;;;;;;;16.15;5.78;;;1.90;99.90;;;1.55;65.17;101336.31;5207339;28;20049;-69
2022/03/04 01:58:14;;;;;;;17.23;6.75;;;1.90;99.90;;;1.53;64.84;101335.31;5206658;28;20045;-69
2022/03/04 02:00:47;;;;;;;16.20;5.85;;;1.80;99.90;;;1.49;64.84;101332.38;5207336;28;20046;-70
2022/03/04 02:03:19;;;;;;;14.73;5.63;;;1.80;99.90;;;1.48;65.00;101328.00;5206962;28;20053;-69
2022/03/04 02:05:51;;;;;;;19.55;6.93;;;1.80;99.90;;;1.47;64.66;101329.69;5207103;28;20052;-70
2022/03/04 02:08:23;;;;;;;18.08;6.20;;;1.80;99.90;;;1.45;64.88;101338.06;5206846;28;20045;-70
2022/03/04 02:10:55;;;;;;;16.30;6.38;;;1.70;99.90;;;1.44;64.68;101331.13;5207005;28;20045;-70
2022/03/04 02:13:27;;;;;;;18.30;6.65;;;1.80;99.90;;;1.46;64.77;101324.44;5207179;28;20098;-69
2022/03/04 02:16:00;;;;;;;14.43;5.47;;;1.70;99.90;;;1.47;64.77;101318.50;5206502;28;20056;-71
2022/03/04 02:18:32;;;;;;;16.95;7.53;;;1.80;99.90;;;1.47;65.19;101323.66;5206315;28;20410;-69
2022/03/04 02:21:09;;;;;;;16.85;6.55;;;1.70;99.90;;;1.45;64.74;101320.06;5206450;28;20053;-70
2022/03/04 02:23:43;;;;;;;14.68;6.32;;;1.80;99.90;;;1.44;64.84;101318.28;5206414;28;20053;-69
2022/03/04 02:26:15;;;;;;;15.70;6.20;;;1.70;99.90;;;1.41;64.94;101312.88;5206470;28;20061;-71
2022/03/04 02:28:47;;;;;;;16.95;6.70;;;1.70;99.90;;;1.35;65.30;101327.03;5205999;28;20049;-69
2022/03/04 02:31:21;;;;;;;15.48;6.32;;;1.70;99.90;;;1.32;65.14;101323.34;5205715;28;20136;-70
2022/03/04 02:33:53;;;;;;;17.02;7.32;;;1.60;99.90;;;1.32;65.45;101325.91;5207114;28;20509;-70
2022/03/04 02:36:25;;;;;;;16.63;6.07;;;1.70;99.90;;;1.31;65.10;101324.13;5206686;28;20046;-70
2022/03/04 02:38:59;;;;;;;13.68;6.55;;;1.60;99.90;;;1.27;65.90;101320.41;5205955;28;20499;-70
2022/03/04 02:41:34;;;;;;;14.73;6.18;;;1.60;99.90;;;1.24;65.64;101327.88;5206550;28;20483;-70
2022/03/04 02:44:09;;;;;;;14.13;6.10;;;1.60;99.90;;;1.19;65.82;101321.47;5206334;28;20056;-70
2022/03/04 02:46:42;;;;;;;15.45;7.25;;;1.50;99.90;;;1.15;66.03;101316.84;5206285;28;20049;-70
2022/03/04 02:49:15;;;;;;;15.15;6.63;;;1.50;99.90;;;1.06;66.36;101313.53;5205919;28;20103;-69
2022/03/04 02:51:47;;;;;;;17.65;6.38;;;1.50;99.90;;;1.11;66.78;101329.31;5206142;28;20055;-69
2022/03/04 02:54:21;;;;;;;15.48;6.25;;;1.40;99.90;;;1.07;66.89;101325.59;5205837;28;20049;-69
2022/03/04 02:56:53;;;;;;;15.15;6.63;;;1.40;99.90;;;1.02;67.50;101311.50;5206269;28;20045;-70
2022/03/04 02:59:24;;;;;;;17.92;6.50;;;1.30;99.90;;;1.01;67.55;101323.44;5205681;28;20498;-70
2022/03/04 03:01:56;;;;;;;16.70;7.68;;;1.30;99.90;;;0.98;67.81;101322.31;5206243;28;20413;-70
2022/03/04 03:04:29;;;;;;;13.57;5.57;;;1.30;99.90;;;0.97;67.42;101323.06;5205675;28;20056;-70
2022/03/04 03:07:01;;;;;;;20.75;7.53;;;1.30;99.90;;;0.97;67.89;101326.50;5205623;28;20410;-69
2022/03/04 03:09:34;;;;;;;17.38;7.30;;;1.30;99.90;;;0.95;67.85;101322.03;5205881;28;20056;-70
2022/03/04 03:12:07;;;;;;;15.00;6.55;;;1.30;99.90;;;0.94;68.10;101325.38;5205843;28;20045;-70
2022/03/04 03:14:39;;;;;;;17.13;5.75;;;1.30;99.90;;;0.91;68.20;101315.75;5205560;28;20049;-70
2022/03/04 03:17:11;;;;;;;17.75;6.55;;;1.30;99.90;;;0.91;67.98;101325.13;5205333;28;20574;-70
2022/03/04 03:19:43;;;;;;;15.73;5.95;;;1.30;99.90;;;0.89;68.15;101321.53;5205498;28;20478;-70
2022/03/04 03:22:16;;;;;;;18.00;6.28;;;1.20;99.90;;;0.87;68.50;101317.97;5205462;28;20049;-70
2022/03/04 03:24:49;;;;;;;15.45;6.68;;;1.20;99.90;;;0.85;68.56;101322.03;5205499;28;20080;-69
2022/03/04 03:27:21;;;;;;;16.25;5.70;;;1.20;99.90;;;0.81;69.03;101320.91;5205171;28;20045;-71
2022/03/04 03:29:53;;;;;;;17.60;6.35;;;1.20;99.90;;;0.78;69.11;101319.00;5205590;28;20479;-70
2022/03/04 03:32:25;;;;;;;13.10;6.13;;;1.10;99.90;;;0.73;68.90;101322.88;5205526;28;20494;-69
2022/03/04 03:34:57;;;;;;;15.35;5.57;;;1.10;99.90;;;0.70;69.49;101320.03;5205360;28;20049;-70
2022/03/04 03:37:29;;;;;;;15.00;5.63;;;1.10;99.90;;;0.67;69.56;101322.34;5204903;28;20060;-70
2022/03/04 03:40:03;;;;;;;16.38;6.10;;;1.00;99.90;;;0.63;69.85;101321.97;5205207;28;20071;-70
2022/03/04 03:42:36;;;;;;;15.55;7.00;;;1.00;99.90;;;0.61;69.74;101334.69;5205528;28;20490;-70
2022/03/04 03:45:11;;;;;;;17.20;6.05;;;1.00;99.90;;;0.53;70.10;101320.31;5205362;28;20049;-70
2022/03/04 03:47:43;;;;;;;12.70;6.15;;;0.90;99.90;;;0.56;69.95;101330.81;5204888;28;20508;-69
2022/03/04 03:50:15;;;;;;;13.55;6.43;;;0.90;99.90;;;0.53;70.11;101322.91;5205270;28;20136;-69
2022/03/04 03:52:48;;;;;;;16.63;6.22;;;0.90;99.90;;;0.52;70.13;101326.19;5205485;28;20053;-71
2022/03/04 03:55:21;;;;;;;15.73;6.03;;;0.90;99.90;;;0.51;70.09;101327.88;5205334;28;20054;-69
2022/03/04 03:57:53;;;;;;;16.05;6.38;;;0.90;99.90;;;0.50;70.41;101318.38;5204459;28;20088;-70
2022/03/04 04:00:25;;;;;;;20.10;6.45;;;0.80;99.90;;;0.53;70.06;101325.47;5205391;28;20041;-69
2022/03/04 04:02:57;;;;;;;20.45;6.78;;;0.80;99.90;;;0.50;70.69;101318.38;5205061;28;20401;-68
2022/03/04 04:05:29;;;;;;;18.38;6.78;;;0.80;99.90;;;0.51;70.38;101321.84;5204618;28;20049;-70
2022/03/04 04:08:01;;;;;;;16.58;6.20;;;0.80;99.90;;;0.51;70.27;101317.59;5204452;28;20049;-69
2022/03/04 04:10:34;;;;;;;17.05;6.45;;;0.90;99.90;;;0.53;70.11;101326.34;5204841;28;20041;-69
2022/03/04 04:13:06;;;;;;;17.95;7.22;;;0.90;99.90;;;0.57;69.98;101337.75;5204940;28;20155;-70
2022/03/04 04:15:38;;;;;;;15.90;6.18;;;0.90;99.90;;;0.61;69.77;101333.78;5204710;28;20491;-69
2022/03/04 04:18:10;;;;;;;15.73;6.25;;;0.90;99.90;;;0.59;69.27;101331.09;5204416;28;20053;-69
2022/03/04 04:20:42;;;;;;;15.38;5.97;;;0.90;99.90;;;0.57;69.68;101326.59;5204514;28;20050;-70
2022/03/04 04:23:14;;;;;;;14.95;6.10;;;0.90;99.90;;;0.53;69.71;101330.59;5204536;28;20050;-69
2022/03/04 04:25:48;;;;;;;15.00;6.70;;;0.90;99.90;;;0.49;69.99;101342.25;5204369;28;20049;-70
2022/03/04 04:28:21;;;;;;;16.00;6.32;;;0.90;99.90;;;0.47;69.79;101340.34;5204206;28;20060;-70
2022/03/04 04:30:53;;;;;;;15.60;6.53;;;0.80;99.90;;;0.45;69.93;101345.31;5204717;28;20524;-70
2022/03/04 04:33:25;;;;;;;16.20;6.13;;;0.80;99.90;;;0.41;70.44;101344.94;5204742;28;20057;-71
2022/03/04 04:35:57;;;;;;;13.95;5.47;;;0.80;99.90;;;0.38;70.29;101350.69;5204645;28;20483;-70
2022/03/04 04:38:29;;;;;;;16.15;7.25;;;0.70;99.90;;;0.34;70.70;101352.91;5203859;28;20653;-70
2022/03/04 04:41:03;;;;;;;18.85;6.70;;;0.70;99.90;;;0.32;70.84;101344.16;5204532;28;20041;-70
2022/03/04 04:43:35;;;;;;;15.07;6.72;;;0.70;99.90;;;0.28;71.08;101349.81;5204524;28;20414;-70
2022/03/04 04:46:07;;;;;;;16.70;6.55;;;0.60;99.90;;;0.24;70.68;101346.97;5204520;28;20051;-70
2022/03/04 04:48:39;;;;;;;17.10;6.78;;;0.60;99.90;;;0.20;71.30;101339.81;5203955;28;20057;-69
2022/03/04 04:51:11;;;;;;;14.20;6.07;;;0.60;99.90;;;0.16;71.50;101353.13;5204494;28;20056;-70
2022/03/04 04:53:43;;;;;;;16.20;6.30;;;0.60;99.90;;;0.13;71.65;101351.97;5206663;28;20045;-70
2022/03/04 04:56:17;;;;;;;17.40;6.18;;;0.50;99.90;;;0.11;71.83;101343.25;5208312;28;20081;-69
2022/03/04 04:58:49;;;;;;;16.73;6.03;;;0.50;99.90;;;0.11;71.49;101349.28;5208007;28;20049;-70
2022/03/04 05:01:21;;;;;;;14.10;6.32;;;0.50;99.90;;;0.10;71.96;101352.63;5208376;28;20045;-70
2022/03/04 05:03:53;;;;;;;16.98;6.07;;;0.50;99.90;;;0.09;71.89;101361.06;5208416;28;20049;-68
2022/03/04 05:06:25;;;;;;;15.90;6.10;;;0.40;99.90;;;0.12;71.87;101366.44;5208496;28;20045;-70
2022/03/04 05:08:57;;;;;;;17.23;6.72;;;0.50;99.90;;;0.13;71.89;101362.22;5208121;28;20053;-69
2022/03/04 05:11:30;;;;;;;16.88;6.60;;;0.50;99.90;;;0.14;71.55;101377.75;5208371;28;20052;-70
2022/03/04 05:14:02;;;;;;;14.48;6.18;;;0.50;99.90;;;0.14;71.53;101375.19;5207968;28;20053;-71
2022/03/04 05:16:34;;;;;;;17.25;6.32;;;0.50;99.90;;;0.12;71.69;101374.13;5208232;28;20052;-70
2022/03/04 05:19:06;;;;;;;14.55;5.20;;;0.50;99.90;;;0.10;71.59;101377.34;5207670;28;20059;-70
2022/03/04 05:21:38;;;;;;;17.85;8.27;;;0.50;99.90;;;0.05;71.37;101379.50;5207958;28;20422;-70
2022/03/04 05:24:11;;;;;;;20.70;6.75;;;0.40;99.90;;;0.02;71.48;101373.25;5207627;28;20060;-69
2022/03/04 05:26:45;;;;;;;19.88;7.25;;;0.40;99.90;;;-0.02;71.83;101378.09;5207850;28;20046;-70
2022/03/04 05:29:17;;;;;;;14.25;6.65;;;0.40;99.90;;;-0.06;71.88;101376.06;5207581;28;20406;-70
2022/03/04 05:31:49;;;;;;;15.20;6.05;;;0.30;99.90;;;-0.08;71.92;101379.22;5207870;28;20509;-69
2022/03/04 05:34:21;;;;;;;12.52;6.00;;;0.30;99.90;;;-0.10;72.17;101388.47;5207604;28;20053;-71
2022/03/04 05:36:53;;;;;;;14.93;6.97;;;0.30;99.90;;;-0.13;72.46;101383.06;5207816;28;20426;-70
2022/03/04 05:39:25;;;;;;;14.82;6.05;;;0.20;99.90;;;-0.13;72.60;101388.19;5207029;28;20056;-70
2022/03/04 05:41:58;;;;;;;18.60;6.43;;;0.30;99.90;;;-0.15;72.65;101384.59;5207892;28;20051;-70
2022/03/04 05:44:30;;;;;;;16.88;5.95;;;0.20;99.90;;;-0.15;72.32;101379.47;5207387;28;20045;-70
2022/03/04 05:47:02;;;;;;;15.80;5.55;;;0.20;99.90;;;-0.16;72.58;101387.94;5207119;28;20050;-69
2022/03/04 05:49:34;;;;;;;16.67;5.70;;;0.20;99.90;;;-0.16;72.32;101388.81;5207565;28;20057;-70
2022/03/04 05:52:07;;;;;;;15.25;6.68;;;0.20;99.90;;;-0.18;72.14;101390.38;5207817;28;20139;-70
2022/03/04 05:54:39;;;;;;;16.92;6.88;;;0.20;99.90;;;-0.18;72.50;101394.59;5207470;28;20516;-70
2022/03/04 05:57:12;;;;;;;19.65;6.80;;;0.20;99.90;;;-0.21;72.28;101400.34;5206858;28;20069;-70
2022/03/04 05:59:44;;;;;;;18.73;6.97;;;0.20;99.90;;;-0.25;72.35;101392.28;5207373;28;20053;-71
2022/03/04 06:02:16;;;;;;;16.05;6.97;;;0.10;99.90;;;-0.28;72.46;101403.13;5207354;28;20508;-70
2022/03/04 06:04:48;;;;;;;18.70;6.60;;;0.10;99.90;;;-0.30;72.53;101408.13;5209505;23;20156;-72
2022/03/04 06:07:20;;;;;;;16.55;6.32;;;0.10;99.90;;;-0.30;72.74;101405.56;5182140;28;20042;-74
2022/03/04 06:09:52;;;;;;;15.50;5.65;;;0.10;99.90;;;-0.29;72.85;101407.34;5185894;28;20050;-72
2022/03/04 06:12:26;;;;;;;24.15;7.60;;;0.10;99.90;;;-0.28;72.85;101404.03;5186933;28;20073;-73
2022/03/04 06:14:58;;;;;;;15.52;6.22;;;0.10;99.90;;;-0.28;72.53;101411.72;5186203;28;20050;-73
2022/03/04 06:17:30;;;;;;;18.23;5.47;;;0.10;99.90;;;-0.26;72.74;101411.88;5185969;28;20049;-72
2022/03/04 06:20:02;;;;;;;20.45;7.38;;;0.10;99.90;;;-0.23;72.70;101416.34;5186617;28;20048;-73
2022/03/04 06:22:35;;;;;;;18.05;7.15;;;0.10;99.90;;;-0.22;72.59;101419.03;5185543;28;20054;-73
2022/03/04 06:25:08;;;;;;;22.13;7.40;;;0.20;99.90;;;-0.17;72.66;101427.13;5185497;28;20446;-72
2022/03/04 06:27:52;;;;;;;19.98;7.90;;;0.20;99.90;;;-0.16;72.63;101429.81;5185632;28;20411;-72
2022/03/04 06:30:29;;;;;;;21.70;6.85;;;0.20;99.90;;;-0.12;72.72;101429.34;5186411;28;20064;-72
2022/03/04 06:35:47;;;;;;;18.30;6.88;;;0.30;99.90;;;-0.09;72.74;101431.25;5185453;28;20185;-73
2022/03/04 06:38:19;;;;;;;20.60;7.35;;;0.30;99.90;;;-0.06;72.81;101429.88;5186016;28;20433;-72
2022/03/04 06:40:52;;;;;;;21.05;7.00;;;0.30;99.90;;;0.19;73.08;101440.56;5186157;28;20069;-72
2022/03/04 06:43:26;;;;;;;20.40;7.13;;;0.40;99.90;;;0.84;73.00;101436.66;5185834;28;20490;-73
2022/03/04 06:45:59;;;;;;;19.92;6.60;;;0.80;99.90;;;1.65;71.37;101434.72;5185630;28;20054;-73
2022/03/04 06:48:31;;;;;;;16.27;6.90;;;1.30;99.90;;;2.28;69.17;101432.84;5185455;28;20056;-72
2022/03/04 06:51:04;;;;;;;17.02;6.57;;;1.80;99.90;;;2.74;67.44;101429.59;5186331;28;20046;-73
2022/03/04 06:53:36;;;;;;;21.67;8.38;;;2.30;99.90;;;3.09;65.88;101424.50;5184817;28;20468;-72
2022/03/04 06:56:08;;;;;;;19.35;6.88;;;2.60;99.90;;;3.33;64.59;101440.00;5185449;28;20217;-73
2022/03/04 06:58:41;;;;;;;17.08;7.15;;;2.90;99.90;;;3.45;63.70;101436.63;5185378;28;20042;-72
2022/03/04 07:01:13;;;;;;;22.65;7.65;;;3.10;99.90;;;4.18;62.47;101447.88;5185268;28;20081;-71
2022/03/04 07:03:45;;;;;;;20.48;7.68;;;3.50;99.90;;;5.67;58.98;101455.47;5185455;28;20050;-72
2022/03/04 07:06:18;;;;;;;23.08;8.10;;;4.40;99.90;;;7.24;54.90;101456.56;5185303;28;20522;-72
2022/03/04 07:08:50;;;;;;;20.95;8.52;;;5.50;98.60;;;8.63;50.03;101468.69;5185306;28;20054;-72
2022/03/04 07:11:22;;;;;;;23.52;10.07;;;6.60;94.90;;;9.83;46.21;101476.53;5185474;28;20123;-72
2022/03/04 07:13:56;;;;;;;25.17;9.00;;;7.80;90.10;;;10.87;43.30;101478.81;5185384;28;20054;-72
2022/03/04 07:16:28;;;;;;;21.38;8.63;;;8.80;81.30;;;11.73;40.82;101474.63;5184819;28;20056;-72
2022/03/04 07:19:00;;;;;;;19.17;8.20;;;9.60;75.00;;;12.41;39.18;101489.59;5184780;28;20046;-72
2022/03/04 07:21:32;;;;;;;19.83;8.40;;;10.40;69.20;;;13.14;37.27;101483.53;5185013;28;20050;-72
2022/03/04 07:24:04;;;;;;;17.85;8.20;;;11.10;65.60;;;13.70;35.78;101496.00;5185323;28;20067;-72
2022/03/04 07:26:37;;;;;;;20.17;8.20;;;11.70;62.40;;;14.09;34.61;101498.13;5185086;28;20056;-73
2022/03/04 07:29:11;;;;;;;16.23;7.82;;;12.20;59.70;;;14.45;33.42;101494.84;5184383;28;20050;-72
2022/03/04 07:31:43;;;;;;;18.30;8.07;;;12.60;57.00;;;14.80;32.84;101499.44;5185348;28;20042;-72
2022/03/04 07:34:15;;;;;;;17.92;7.97;;;13.00;56.20;;;14.95;32.17;101495.47;5182486;28;20498;-72
2022/03/04 07:36:47;;;;;;;19.73;9.40;;;13.30;54.20;;;15.16;31.30;101493.44;5181614;28;20052;-72
2022/03/04 07:39:19;;;;;;;15.65;8.27;;;13.50;53.40;;;15.23;31.19;101486.59;5184569;28;20422;-71
2022/03/04 07:41:51;;;;;;;18.50;8.45;;;13.60;52.60;;;15.29;30.53;101495.53;5184674;28;20042;-73
2022/03/04 07:44:25;;;;;;;18.50;8.77;;;13.70;51.50;;;15.45;30.01;101496.81;5185167;28;20054;-72
2022/03/04 07:46:56;;;;;;;19.77;7.85;;;13.90;51.00;;;15.72;29.84;101491.44;5184945;28;20056;-72
2022/03/04 07:49:28;;;;;;;19.25;8.32;;;14.10;50.80;;;15.92;29.32;101495.44;5184927;28;20526;-71
2022/03/04 07:52:00;;;;;;;18.17;8.27;;;14.20;50.10;;;15.72;29.26;101483.56;5184591;28;20050;-72
2022/03/04 07:54:32;;;;;;;16.90;8.15;;;14.20;49.60;;;15.87;29.28;101489.16;5184954;28;20045;-71
2022/03/04 07:57:05;;;;;;;18.13;8.55;;;14.30;49.70;;;15.32;29.39;101484.22;5184616;28;20414;-70
2022/03/04 07:59:38;;;;;;;16.75;7.97;;;14.10;49.20;;;14.12;30.54;101485.09;5184855;28;20305;-70
2022/03/04 08:02:10;;;;;;;19.73;8.93;;;13.40;49.30;;;12.87;32.17;101491.31;5184553;28;20124;-70
2022/03/04 08:04:42;;;;;;;18.80;8.75;;;12.60;50.60;;;12.17;33.72;101490.41;5184401;28;20490;-69
2022/03/04 08:07:14;;;;;;;17.52;8.60;;;11.90;51.80;;;12.06;34.28;101490.81;5184325;28;20055;-70
2022/03/04 08:09:46;;;;;;;21.23;8.65;;;11.50;53.00;;;12.84;33.80;101491.16;5184499;28;20060;-71
2022/03/04 08:12:19;;;;;;;20.67;8.27;;;11.60;53.60;;;13.89;32.34;101496.56;5184604;28;20056;-71
2022/03/04 08:14:53;;;;;;;19.40;8.85;;;12.00;54.10;;;14.82;31.35;101497.75;5184510;28;20050;-71
2022/03/04 08:17:26;;;;;;;17.50;6.80;;;12.70;53.00;;;15.45;34.92;101503.00;5183946;28;20046;-73
2022/03/04 08:19:58;;;;;;;18.98;10.20;;;13.20;58.90;;;16.35;31.72;101509.56;5184734;28;20111;-75
2022/03/04 08:22:30;;;;;;;17.25;8.07;;;14.10;54.80;;;16.73;29.00;101504.28;5184715;28;20687;-76
2022/03/04 08:25:03;;;;;;;19.40;8.43;;;14.60;50.40;;;16.85;27.92;101512.44;5184892;28;20054;-76
2022/03/04 08:27:38;;;;;;;19.63;8.98;;;14.80;48.30;;;17.00;28.33;101519.75;5183263;28;20056;-76
2022/03/04 08:30:14;;;;;;;26.98;12.25;;;15.10;48.90;;;17.45;27.88;101509.22;5184658;28;20049;-75
2022/03/04 08:32:46;;;;;;;24.95;11.57;;;15.50;48.30;;;17.87;30.23;101502.94;5184192;28;20042;-71
2022/03/04 08:35:18;;;;;;;25.25;11.75;;;15.90;52.80;;;18.35;27.26;101501.91;5184286;28;20050;-71
2022/03/04 08:37:52;;;;;;;21.50;10.63;;;16.30;47.90;;;18.60;26.55;101496.09;5183534;28;20049;-71
2022/03/04 08:40:24;;;;;;;28.02;12.20;;;16.70;46.80;;;18.73;26.15;101498.94;5184126;28;20054;-71
2022/03/04 08:42:56;;;;;;;17.25;7.20;;;16.80;46.20;;;18.90;31.99;101502.63;5184462;28;20045;-68
2022/03/04 08:45:29;;;;;;;17.63;9.15;;;17.10;53.60;;;19.16;28.77;101503.81;5183820;28;20053;-67
2022/03/04 08:48:06;;;;;;;20.95;9.38;;;17.50;49.30;;;19.33;28.11;101505.78;5183541;28;20487;-67
2022/03/04 08:50:38;;;;;;;19.52;10.82;;;17.80;48.00;;;19.27;25.32;101511.00;5184234;28;20056;-71
2022/03/04 08:53:10;;;;;;;21.52;10.23;;;17.80;43.90;;;18.12;25.36;101520.91;5184362;28;20401;-71
2022/03/04 08:55:44;;;;;;;21.83;10.73;;;17.10;43.30;;;17.30;26.54;101525.63;5184069;28;20045;-70
2022/03/04 08:58:16;;;;;;;20.60;10.05;;;16.40;45.10;;;17.23;26.87;101514.94;5183382;28;20100;-71
2022/03/04 09:00:49;;;;;;;20.75;10.55;;;16.30;44.90;;;16.94;27.19;101509.97;5183880;28;20053;-72
2022/03/04 09:03:21;;;;;;;23.25;11.57;;;16.00;45.20;;;16.36;27.51;101511.34;5183997;28;20042;-71
2022/03/04 09:05:53;;;;;;;21.85;10.00;;;15.50;45.30;;;15.87;27.56;101511.94;5167601;28;20046;-71
2022/03/04 09:08:25;;;;;;;22.40;10.55;;;15.40;45.50;;;15.23;28.83;101507.63;5179169;28;20046;-70
2022/03/04 09:10:57;;;;;;;20.85;10.32;;;14.80;46.20;;;14.78;29.87;101516.88;5182147;28;20068;-71
2022/03/04 09:13:32;;;;;;;22.42;10.60;;;14.50;47.40;;;14.16;30.60;101502.72;5179733;28;20076;-70
2022/03/04 09:16:06;;;;;;;21.00;10.50;;;14.10;47.60;;;13.61;31.35;101503.53;5183517;28;20042;-71
2022/03/04 09:18:38;;;;;;;24.10;10.55;;;13.60;48.40;;;13.24;31.88;101502.28;5183936;28;20072;-71
2022/03/04 09:21:11;;;;;;;24.95;11.45;;;13.30;48.80;;;12.94;32.46;101501.16;5184157;28;20142;-70
2022/03/04 09:23:42;;;;;;;25.02;11.10;;;12.90;49.70;;;12.94;33.14;101498.53;5171830;28;20054;-71
2022/03/04 09:26:15;;;;;;;25.08;12.18;;;12.80;50.80;;;12.47;33.48;101495.06;5184232;28;20048;-70
2022/03/04 09:28:47;;;;;;;27.88;11.82;;;12.50;50.30;;;12.15;33.66;101504.25;5177457;28;20050;-70
2022/03/04 09:31:20;;;;;;;25.73;11.05;;;12.20;50.80;;;12.02;34.06;101504.59;5183528;28;20053;-70
2022/03/04 09:33:53;;;;;;;24.55;10.48;;;12.00;51.30;;;11.83;34.56;101498.63;5184455;28;20510;-71
2022/03/04 09:36:25;;;;;;;23.70;10.95;;;11.70;51.90;;;12.02;34.61;101500.25;5184189;28;20089;-71
2022/03/04 09:38:57;;;;;;;25.17;11.52;;;11.80;52.40;;;11.99;34.97;101504.47;5185074;28;20054;-70
2022/03/04 09:41:30;;;;;;;21.33;10.32;;;11.70;52.30;;;11.88;34.63;101498.81;5187559;28;20099;-71
2022/03/04 09:44:03;;;;;;;23.27;10.82;;;11.60;52.50;;;11.90;34.74;101503.25;5187688;28;20048;-70
2022/03/04 09:46:38;;;;;;;21.92;10.88;;;11.60;52.40;;;11.73;34.80;101495.53;5188074;28;20053;-70
2022/03/04 09:49:10;;;;;;;24.83;10.85;;;11.50;52.40;;;11.63;35.26;101503.00;5187394;28;20506;-69
2022/03/04 09:51:42;;;;;;;27.15;11.60;;;11.50;52.80;;;11.59;35.12;101498.47;5187862;28;20547;-70
2022/03/04 09:54:14;;;;;;;29.42;11.23;;;11.40;52.90;;;11.53;36.42;101492.97;5187744;28;20053;-69
2022/03/04 09:56:46;;;;;;;25.00;10.65;;;11.40;54.20;;;11.71;35.73;101502.41;5187579;28;20045;-70
2022/03/04 09:59:19;;;;;;;24.52;11.23;;;11.40;53.80;;;11.81;35.84;101499.41;5187228;28;20045;-69
2022/03/04 10:01:52;;;;;;;31.75;11.80;;;11.50;53.80;;;11.92;35.84;101498.97;5187600;28;20054;-70
2022/03/04 10:04:27;;;;;;;25.90;11.20;;;11.60;53.90;;;11.87;34.90;101502.28;5187595;28;20072;-70
2022/03/04 10:07:09;;;;;;;28.02;11.57;;;11.60;52.80;;;11.97;35.36;101503.50;5187358;28;20058;-70
2022/03/04 10:09:44;;;;;;;25.42;11.57;;;11.60;53.30;;;12.01;35.26;101498.47;5187248;28;20058;-71
2022/03/04 10:12:18;;;;;;;27.55;11.77;;;11.70;53.30;;;12.10;34.84;101503.19;5187223;28;20049;-70
2022/03/04 10:15:00;;;;;;;26.52;11.18;;;11.70;52.90;;;12.06;35.15;101502.19;5187361;28;20056;-70
2022/03/04 10:17:36;;;;;;;28.35;12.73;;;11.70;53.10;;;11.81;35.10;101504.63;5187104;28;20483;-70
2022/03/04 10:20:12;;;;;;;26.65;11.60;;;11.60;52.90;;;11.67;35.54;101502.31;5186911;28;20495;-70
2022/03/04 10:22:46;;;;;;;27.17;12.13;;;11.50;53.20;;;11.60;35.81;101489.78;5187199;28;20143;-70
2022/03/04 10:25:22;;;;;;;27.90;11.60;;;11.40;53.30;;;11.50;36.07;101492.88;5186872;28;20054;-70
2022/03/04 10:27:54;;;;;;;25.05;12.10;;;11.40;53.90;;;11.60;36.44;101488.91;5186748;28;20395;-70
2022/03/04 10:30:34;;;;;;;29.33;12.07;;;11.40;54.40;;;11.78;36.41;101494.00;5186760;28;20052;-69
2022/03/04 10:33:08;;;;;;;28.10;11.65;;;11.50;54.60;;;12.01;35.95;101498.47;5186741;28;20142;-70
2022/03/04 10:35:41;;;;;;;25.88;11.80;;;11.60;54.20;;;11.96;35.50;101494.78;5187378;28;20050;-69
2022/03/04 10:38:23;;;;;;;24.30;10.70;;;11.60;53.70;;;11.93;36.16;101490.34;5186685;28;20050;-71